Time;durP1;ratioP1;P1;durP2;ratioP2;P2;SDS_P1;SDS_P2;PMS_P1;PMS_P2;Temp;Humidity;BMP_temperature;BMP_pressure;BME280_temperature;BME280_humidity;BME280_pressure;Samples;Min_cycle;Max_cycle;Signal;HPM_P1;HPM_P2
2022/10/19 00:01:17;;;;;;;4.90;3.13;;;7.80;99.90;;;;;;5086254;28;20442;-71
2022/10/19 00:03:44;;;;;;;49.50;4.97;;;7.80;99.90;;;;;;5101003;28;20487;-71
2022/10/19 00:06:16;;;;;;;11.05;3.00;;;7.70;99.90;;;;;;5100564;28;20073;-71
2022/10/19 00:08:43;;;;;;;6.40;2.80;;;7.70;99.90;;;;;;5100355;28;20067;-71
2022/10/19 00:11:10;;;;;;;10.68;3.97;;;7.70;99.90;;;;;;5100742;28;20039;-71
2022/10/19 00:13:36;;;;;;;6.45;3.47;;;7.70;99.90;;;;;;5100987;28;20040;-71
2022/10/19 00:16:15;;;;;;;17.38;4.13;;;7.60;99.90;;;;;;5101458;28;20049;-71
2022/10/19 00:18:42;;;;;;;18.60;3.63;;;7.60;99.90;;;;;;5087636;28;20104;-71
2022/10/19 00:21:10;;;;;;;43.00;3.90;;;7.60;99.90;;;;;;5086499;28;20518;-71
2022/10/19 00:23:36;;;;;;;62.28;4.82;;;7.60;99.90;;;;;;5085110;28;20120;-71
2022/10/19 00:26:02;;;;;;;;;;;7.50;99.90;;;;;;5087505;28;20755;-71
2022/10/19 00:28:28;;;;;;;13.68;3.40;;;7.50;99.90;;;;;;5087740;28;20057;-72
2022/10/19 00:30:54;;;;;;;5.75;2.78;;;7.40;99.90;;;;;;5085253;28;20470;-71
2022/10/19 00:33:22;;;;;;;;;;;7.40;99.90;;;;;;5087564;28;20126;-71
2022/10/19 00:35:50;;;;;;;8.18;2.70;;;7.50;99.90;;;;;;5085431;28;19920;-71
2022/10/19 00:38:17;;;;;;;88.38;5.55;;;7.50;99.90;;;;;;5102802;28;20639;-71
2022/10/19 00:40:43;;;;;;;42.90;4.35;;;7.40;99.90;;;;;;5085031;28;20043;-71
2022/10/19 00:43:17;;;;;;;50.88;5.80;;;7.50;99.90;;;;;;5083378;28;20036;-71
2022/10/19 00:45:43;;;;;;;14.05;4.28;;;7.40;99.90;;;;;;5086581;28;20048;-71
2022/10/19 00:48:11;;;;;;;;;;;7.40;99.90;;;;;;5086692;28;20121;-71
2022/10/19 00:50:37;;;;;;;8.32;4.18;;;7.40;99.90;;;;;;5084543;28;20041;-71
2022/10/19 00:53:02;;;;;;;14.00;4.20;;;7.40;99.90;;;;;;5089068;28;20165;-71
2022/10/19 00:55:28;;;;;;;;;;;7.50;99.90;;;;;;5088116;28;20048;-71
2022/10/19 00:57:54;;;;;;;10.48;4.28;;;7.50;99.90;;;;;;5088063;28;20415;-71
2022/10/19 01:00:20;;;;;;;;;;;7.40;99.90;;;;;;5087095;28;20028;-71
2022/10/19 01:02:46;;;;;;;6.57;3.50;;;7.50;99.90;;;;;;5087228;28;19920;-71
2022/10/19 01:05:12;;;;;;;7.18;3.20;;;7.50;99.90;;;;;;5087160;28;20035;-71
2022/10/19 01:07:38;;;;;;;9.32;3.47;;;7.50;99.90;;;;;;5086055;28;20169;-71
2022/10/19 01:10:03;;;;;;;;;;;7.50;99.90;;;;;;5087305;28;20123;-71
2022/10/19 01:12:56;;;;;;;9.35;3.33;;;7.60;99.90;;;;;;5087119;28;19920;-71
2022/10/19 01:15:38;;;;;;;10.82;3.38;;;7.60;99.90;;;;;;5087346;28;20075;-71
2022/10/19 01:18:58;;;;;;;10.60;3.70;;;7.70;99.90;;;;;;5086094;28;20036;-71
2022/10/19 01:22:09;;;;;;;7.25;3.35;;;7.70;99.90;;;;;;5032508;28;20076;-71
2022/10/19 01:25:02;;;;;;;9.55;3.13;;;7.70;99.90;;;;;;4973860;28;20051;-71
2022/10/19 01:27:28;;;;;;;7.35;3.63;;;7.70;99.90;;;;;;5084334;28;20062;-71
2022/10/19 01:29:53;;;;;;;;;;;7.60;99.90;;;;;;5084553;28;20107;-71
2022/10/19 01:32:39;;;;;;;7.50;3.47;;;7.60;99.90;;;;;;5067620;28;20181;-71
2022/10/19 01:35:12;;;;;;;9.70;3.83;;;7.60;99.90;;;;;;5065894;28;20082;-71
2022/10/19 01:37:56;;;;;;;10.07;4.20;;;7.60;99.90;;;;;;5066175;28;20040;-70
2022/10/19 01:40:35;;;;;;;7.65;3.75;;;7.50;99.90;;;;;;5065105;28;20101;-71
2022/10/19 01:43:08;;;;;;;16.65;3.80;;;7.60;99.90;;;;;;5066282;28;20064;-70
2022/10/19 01:45:50;;;;;;;14.00;3.85;;;7.60;99.90;;;;;;5065409;28;20044;-70
2022/10/19 01:48:27;;;;;;;12.00;3.55;;;7.60;99.90;;;;;;5046194;28;20045;-70
2022/10/19 01:51:10;;;;;;;11.80;5.18;;;7.50;99.90;;;;;;5045500;28;20041;-70
2022/10/19 01:53:42;;;;;;;13.05;6.95;;;7.60;99.90;;;;;;5067996;28;20587;-70
2022/10/19 01:56:09;;;;;;;16.75;6.28;;;7.60;99.90;;;;;;5065853;28;20045;-70
2022/10/19 01:58:36;;;;;;;14.95;6.80;;;7.60;99.90;;;;;;5065764;28;20047;-71
2022/10/19 02:01:06;;;;;;;11.30;6.70;;;7.60;99.90;;;;;;5064308;28;20033;-70
2022/10/19 02:03:34;;;;;;;12.07;5.50;;;7.60;99.90;;;;;;5064535;28;20123;-70
2022/10/19 02:06:04;;;;;;;6.65;4.50;;;7.60;99.90;;;;;;5064967;28;20584;-70
2022/10/19 02:08:36;;;;;;;13.93;4.78;;;7.70;99.90;;;;;;5065368;28;20055;-70
2022/10/19 02:11:02;;;;;;;15.13;5.20;;;7.50;99.90;;;;;;5064969;28;20563;-70
2022/10/19 02:13:29;;;;;;;15.57;5.10;;;7.40;99.90;;;;;;5065366;28;20048;-70
2022/10/19 02:15:59;;;;;;;13.98;4.88;;;7.30;99.90;;;;;;5065395;28;20567;-71
2022/10/19 02:18:31;;;;;;;12.77;3.92;;;7.30;99.90;;;;;;5065383;28;20036;-70
2022/10/19 02:20:57;;;;;;;19.48;4.85;;;7.30;99.90;;;;;;5064341;28;20827;-70
2022/10/19 02:23:25;;;;;;;27.48;5.35;;;7.30;99.90;;;;;;5066709;28;20123;-71
2022/10/19 02:25:51;;;;;;;11.43;4.80;;;7.20;99.90;;;;;;5065020;28;20409;-70
2022/10/19 02:28:17;;;;;;;;;;;7.20;99.90;;;;;;5065659;28;20554;-70
2022/10/19 02:30:42;;;;;;;16.35;4.95;;;7.20;99.90;;;;;;5063617;28;19955;-70
2022/10/19 02:33:08;;;;;;;13.75;4.68;;;7.20;99.90;;;;;;5063830;28;20036;-70
2022/10/19 02:35:34;;;;;;;;;;;7.10;99.90;;;;;;5065042;28;20072;-70
2022/10/19 02:38:01;;;;;;;11.15;6.93;;;7.10;99.90;;;;;;5064889;28;19916;-70
2022/10/19 02:40:31;;;;;;;12.93;5.97;;;7.10;99.90;;;;;;5065256;28;20562;-71
2022/10/19 02:43:11;;;;;;;15.82;5.30;;;7.10;99.90;;;;;;5061234;28;20115;-71
2022/10/19 02:45:43;;;;;;;25.23;5.18;;;7.00;99.90;;;;;;5065466;28;20145;-70
2022/10/19 02:48:16;;;;;;;28.45;7.00;;;6.90;99.90;;;;;;5064999;28;20113;-71
2022/10/19 02:50:44;;;;;;;10.63;5.80;;;6.90;99.90;;;;;;5063563;28;20054;-71
2022/10/19 02:53:10;;;;;;;10.52;4.78;;;6.90;99.90;;;;;;5067249;28;20166;-71
2022/10/19 02:55:35;;;;;;;;;;;6.90;99.90;;;;;;5065552;28;20127;-70
2022/10/19 02:58:01;;;;;;;23.55;6.95;;;7.00;99.90;;;;;;5064771;28;19928;-70
2022/10/19 03:00:26;;;;;;;;;;;7.10;99.90;;;;;;5064344;28;20170;-71
2022/10/19 03:02:52;;;;;;;15.15;5.32;;;7.10;99.90;;;;;;5084586;28;20004;-71
2022/10/19 03:05:18;;;;;;;;;;;7.20;99.90;;;;;;5084880;28;20622;-71
2022/10/19 03:07:43;;;;;;;11.00;6.72;;;7.30;99.90;;;;;;5083800;28;20407;-70
2022/10/19 03:10:09;;;;;;;;;;;7.30;99.90;;;;;;5083021;28;20148;-70
2022/10/19 03:12:34;;;;;;;15.88;6.70;;;7.40;99.90;;;;;;5083903;28;20042;-71
2022/10/19 03:15:00;;;;;;;;;;;7.40;99.90;;;;;;5081882;28;20032;-71
2022/10/19 03:17:26;;;;;;;9.90;5.43;;;7.40;99.90;;;;;;5084960;28;19916;-70
2022/10/19 03:19:51;;;;;;;;;;;7.40;99.90;;;;;;5083661;28;20124;-71
2022/10/19 03:22:17;;;;;;;8.75;4.55;;;7.40;99.90;;;;;;5086224;28;20010;-70
2022/10/19 03:24:42;;;;;;;;;;;7.40;99.90;;;;;;5082950;28;20679;-71
2022/10/19 03:27:08;;;;;;;11.27;4.90;;;7.40;99.90;;;;;;5083583;28;20368;-70
2022/10/19 03:29:34;;;;;;;;;;;7.50;99.90;;;;;;5083228;28;20032;-71
2022/10/19 03:31:59;;;;;;;5.28;4.03;;;7.40;99.90;;;;;;5083279;28;19916;-70
2022/10/19 03:34:25;;;;;;;;;;;7.50;99.90;;;;;;5085465;28;20040;-71
2022/10/19 03:36:50;;;;;;;8.00;4.40;;;7.50;99.90;;;;;;5083677;28;19938;-71
2022/10/19 03:39:16;;;;;;;;;;;7.50;99.90;;;;;;5083937;28;20040;-71
2022/10/19 03:41:42;;;;;;;9.85;3.58;;;7.50;99.90;;;;;;5082407;28;19919;-70
2022/10/19 03:44:09;;;;;;;15.13;5.18;;;7.50;99.90;;;;;;5083726;28;20087;-70
2022/10/19 03:46:36;;;;;;;11.27;4.40;;;7.50;99.90;;;;;;5084169;28;20051;-70
2022/10/19 03:49:03;;;;;;;8.90;4.90;;;7.50;99.90;;;;;;5083857;28;20042;-71
2022/10/19 03:51:30;;;;;;;9.20;4.88;;;7.60;99.90;;;;;;5086606;28;20577;-70
2022/10/19 03:54:01;;;;;;;7.65;4.53;;;7.50;99.90;;;;;;5079275;28;20090;-70
2022/10/19 03:56:28;;;;;;;14.75;4.93;;;7.50;99.90;;;;;;5088063;28;20599;-70
2022/10/19 03:58:55;;;;;;;7.60;4.57;;;7.50;99.90;;;;;;5087965;28;20130;-70
2022/10/19 04:01:27;;;;;;;18.90;6.13;;;7.40;99.90;;;;;;5093284;28;20408;-71
2022/10/19 04:04:01;;;;;;;13.35;5.38;;;7.40;99.90;;;;;;5067857;28;20044;-71
2022/10/19 04:06:30;;;;;;;15.75;5.20;;;7.50;99.90;;;;;;5067140;28;20049;-70
2022/10/19 04:08:56;;;;;;;10.85;5.00;;;7.50;99.90;;;;;;5066846;28;20087;-71
2022/10/19 04:11:23;;;;;;;;;;;7.50;99.90;;;;;;5067426;28;20064;-71
2022/10/19 04:13:51;;;;;;;16.17;5.38;;;7.50;99.90;;;;;;5065774;28;19917;-70
2022/10/19 04:16:17;;;;;;;12.38;5.63;;;7.50;99.90;;;;;;5066843;28;20059;-71
2022/10/19 04:18:43;;;;;;;8.32;5.43;;;7.60;99.90;;;;;;5066248;28;20836;-71
2022/10/19 04:21:18;;;;;;;;;;;7.40;99.90;;;;;;5067693;28;20033;-71
2022/10/19 04:23:43;;;;;;;7.80;4.25;;;7.50;99.90;;;;;;5067333;28;20015;-71
2022/10/19 04:26:09;;;;;;;;;;;7.50;99.90;;;;;;5068524;28;20676;-71
2022/10/19 04:28:35;;;;;;;20.25;5.88;;;7.60;99.90;;;;;;5067886;28;20455;-72
2022/10/19 04:31:02;;;;;;;9.27;5.07;;;7.50;99.90;;;;;;5066627;28;20039;-70
2022/10/19 04:33:28;;;;;;;9.93;4.90;;;7.60;99.90;;;;;;5067940;28;20041;-71
2022/10/19 04:35:57;;;;;;;;;;;7.60;99.90;;;;;;5067053;28;20028;-71
2022/10/19 04:38:23;;;;;;;10.80;4.65;;;7.60;99.90;;;;;;5060086;28;19920;-71
2022/10/19 04:40:48;;;;;;;;;;;7.60;99.90;;;;;;5065580;28;20036;-71
2022/10/19 04:43:14;;;;;;;18.17;5.05;;;7.60;99.90;;;;;;5063261;28;19920;-71
2022/10/19 04:45:40;;;;;;;6.97;4.55;;;7.60;99.90;;;;;;5066897;28;20051;-71
2022/10/19 04:48:05;;;;;;;;;;;7.50;99.90;;;;;;5066571;28;20043;-71
2022/10/19 04:50:31;;;;;;;9.82;4.70;;;7.60;99.90;;;;;;5065761;28;20003;-71
2022/10/19 04:52:56;;;;;;;;;;;7.50;99.90;;;;;;5070533;28;20041;-71
2022/10/19 04:55:22;;;;;;;9.93;4.80;;;7.40;99.90;;;;;;5066545;28;19970;-71
2022/10/19 04:57:47;;;;;;;8.70;4.75;;;7.40;99.90;;;;;;5066367;28;20036;-71
2022/10/19 05:00:13;;;;;;;;;;;7.30;99.90;;;;;;5064498;28;20467;-71
2022/10/19 05:02:45;;;;;;;10.07;4.75;;;7.20;99.90;;;;;;5080178;28;20646;-72
2022/10/19 05:05:12;;;;;;;19.77;5.60;;;7.30;99.90;;;;;;5066083;28;20067;-71
2022/10/19 05:07:38;;;;;;;12.38;5.82;;;7.20;99.90;;;;;;5065170;28;20417;-71
2022/10/19 05:10:04;;;;;;;;;;;7.20;99.90;;;;;;5066401;28;20037;-71
2022/10/19 05:12:30;;;;;;;17.35;6.18;;;7.20;99.90;;;;;;5061327;28;19916;-71
2022/10/19 05:14:55;;;;;;;;;;;7.20;99.90;;;;;;5067235;28;20032;-71
2022/10/19 05:17:21;;;;;;;13.10;4.68;;;7.20;99.90;;;;;;5065569;28;19977;-71
2022/10/19 05:19:47;;;;;;;;;;;7.30;99.90;;;;;;5065457;28;20044;-71
2022/10/19 05:22:12;;;;;;;11.25;5.18;;;7.30;99.90;;;;;;5066226;28;20977;-71
2022/10/19 05:24:38;;;;;;;;;;;7.20;99.90;;;;;;5066804;28;20080;-71
2022/10/19 05:27:03;;;;;;;12.52;5.45;;;7.20;99.90;;;;;;5066247;28;19931;-70
2022/10/19 05:29:29;;;;;;;11.98;5.43;;;7.20;99.90;;;;;;5064414;28;20378;-71
2022/10/19 05:31:54;;;;;;;;;;;7.20;99.90;;;;;;5066175;28;20047;-71
2022/10/19 05:34:20;;;;;;;16.17;5.35;;;7.10;99.90;;;;;;5098452;28;19916;-71
2022/10/19 05:36:46;;;;;;;;;;;7.10;99.90;;;;;;5065193;28;20040;-71
2022/10/19 05:39:23;;;;;;;14.43;5.15;;;7.00;99.90;;;;;;5063780;28;19923;-70
2022/10/19 05:41:55;;;;;;;11.30;4.82;;;7.00;99.90;;;;;;5065440;28;20037;-69
2022/10/19 05:44:23;;;;;;;15.25;6.50;;;7.00;99.90;;;;;;5066527;28;20040;-68
2022/10/19 05:46:53;;;;;;;21.17;5.13;;;7.00;99.90;;;;;;5066310;28;20041;-69
2022/10/19 05:49:23;;;;;;;14.07;5.43;;;7.00;99.90;;;;;;5065208;28;20067;-69
2022/10/19 05:51:55;;;;;;;11.07;4.88;;;7.00;99.90;;;;;;5069674;28;20056;-69
2022/10/19 05:54:21;;;;;;;9.55;4.95;;;7.00;99.90;;;;;;5064708;28;20048;-69
2022/10/19 05:56:53;;;;;;;15.57;5.57;;;7.00;99.90;;;;;;5062292;28;20501;-69
2022/10/19 05:59:24;;;;;;;13.20;4.65;;;6.90;99.90;;;;;;5045764;28;20049;-69
2022/10/19 06:01:49;;;;;;;13.82;5.00;;;6.90;99.90;;;;;;5058956;28;20522;-69
2022/10/19 06:04:20;;;;;;;10.00;5.13;;;6.80;99.90;;;;;;5065136;28;20047;-69
2022/10/19 06:06:46;;;;;;;13.43;4.28;;;6.90;99.90;;;;;;5065622;28;20040;-69
2022/10/19 06:09:20;;;;;;;6.88;4.15;;;6.90;99.90;;;;;;5065240;28;20036;-69
2022/10/19 06:11:47;;;;;;;16.52;5.07;;;6.80;99.90;;;;;;5063795;28;20048;-69
2022/10/19 06:14:14;;;;;;;12.43;4.63;;;6.80;99.90;;;;;;5066370;28;20036;-69
2022/10/19 06:16:47;;;;;;;12.10;4.65;;;6.80;99.90;;;;;;5081495;28;20134;-69
2022/10/19 06:19:15;;;;;;;10.45;4.50;;;6.80;99.90;;;;;;5081571;28;20037;-69
2022/10/19 06:21:43;;;;;;;12.65;5.05;;;6.80;99.90;;;;;;5067458;28;20028;-69
2022/10/19 06:24:13;;;;;;;22.73;5.18;;;6.90;99.90;;;;;;5065451;28;20071;-69
2022/10/19 06:26:48;;;;;;;9.32;4.72;;;6.90;99.90;;;;;;5065213;28;20048;-69
2022/10/19 06:29:19;;;;;;;18.02;5.53;;;7.00;99.90;;;;;;5063684;28;20041;-69
2022/10/19 06:31:49;;;;;;;18.95;5.00;;;7.00;99.90;;;;;;5054909;27;20036;-69
2022/10/19 06:34:20;;;;;;;9.77;3.72;;;7.00;99.90;;;;;;5062685;28;20612;-69
2022/10/19 06:36:46;;;;;;;12.68;5.32;;;6.90;99.90;;;;;;5064122;28;20037;-69
2022/10/19 06:39:14;;;;;;;;;;;6.90;99.90;;;;;;5056819;28;20129;-69
2022/10/19 06:41:46;;;;;;;6.93;4.00;;;7.00;99.90;;;;;;5060188;28;19920;-69
2022/10/19 06:44:11;;;;;;;;;;;7.00;99.90;;;;;;5059990;28;20044;-69
2022/10/19 06:46:43;;;;;;;8.50;3.78;;;7.00;99.90;;;;;;5060351;28;19920;-69
2022/10/19 06:49:15;;;;;;;8.65;4.22;;;7.10;99.90;;;;;;5058155;28;20044;-69
2022/10/19 06:51:41;;;;;;;11.15;4.32;;;7.20;99.90;;;;;;5059863;28;20041;-69
2022/10/19 06:54:17;;;;;;;;;;;7.20;99.90;;;;;;5056995;28;20045;-69
2022/10/19 06:56:46;;;;;;;16.88;4.38;;;7.20;99.90;;;;;;5059818;28;20391;-69
2022/10/19 06:59:18;;;;;;;19.58;4.25;;;7.20;99.90;;;;;;5064732;28;20127;-69
2022/10/19 07:01:50;;;;;;;18.25;4.18;;;7.20;99.90;;;;;;5061428;28;20056;-69
2022/10/19 07:04:15;;;;;;;15.95;4.45;;;7.20;99.90;;;;;;5058654;28;20052;-69
2022/10/19 07:06:46;;;;;;;;;;;7.20;99.90;;;;;;5058820;28;20041;-69
2022/10/19 07:09:14;;;;;;;18.67;6.18;;;7.20;99.90;;;;;;5062516;28;19966;-69
2022/10/19 07:11:46;;;;;;;9.45;4.13;;;7.20;99.90;;;;;;5059093;28;20033;-69
2022/10/19 07:14:15;;;;;;;12.20;4.38;;;7.30;99.90;;;;;;5064360;28;20663;-69
2022/10/19 07:16:40;;;;;;;;;;;7.40;99.90;;;;;;5057853;28;20048;-69
2022/10/19 07:19:11;;;;;;;18.05;4.38;;;7.50;99.90;;;;;;5062142;28;19920;-67
2022/10/19 07:21:42;;;;;;;18.00;5.72;;;7.50;99.90;;;;;;5060858;28;20040;-67
2022/10/19 07:24:08;;;;;;;13.93;5.63;;;7.60;99.90;;;;;;5063559;28;20054;-67
2022/10/19 07:26:36;;;;;;;12.98;4.75;;;7.60;99.90;;;;;;5079980;28;20037;-67
2022/10/19 07:29:06;;;;;;;21.25;5.45;;;7.70;99.90;;;;;;5062712;28;20060;-67
2022/10/19 07:31:32;;;;;;;10.48;3.67;;;7.70;99.90;;;;;;5067015;28;20041;-67
2022/10/19 07:34:00;;;;;;;;;;;7.90;99.90;;;;;;5064970;28;20037;-69
2022/10/19 07:36:35;;;;;;;13.32;3.38;;;8.00;99.90;;;;;;5067270;28;20380;-69
2022/10/19 07:39:09;;;;;;;15.68;3.55;;;8.10;99.90;;;;;;5057607;28;20112;-69
2022/10/19 07:41:42;;;;;;;12.50;3.70;;;8.20;99.90;;;;;;5068524;28;20145;-69
2022/10/19 07:44:16;;;;;;;12.50;3.90;;;8.30;99.90;;;;;;5067854;28;20041;-69
2022/10/19 07:46:44;;;;;;;12.52;4.63;;;8.30;99.90;;;;;;5069324;28;20045;-69
2022/10/19 07:49:17;;;;;;;10.98;3.67;;;8.30;99.90;;;;;;5048347;28;20033;-69
2022/10/19 07:51:52;;;;;;;13.67;3.40;;;8.40;99.90;;;;;;5054104;28;20043;-69
2022/10/19 07:54:23;;;;;;;6.72;3.33;;;8.50;99.90;;;;;;5064294;28;20146;-69
2022/10/19 07:56:52;;;;;;;10.52;3.15;;;8.60;99.90;;;;;;5068917;28;20373;-69
2022/10/19 07:59:30;;;;;;;8.60;2.78;;;8.60;99.90;;;;;;5065542;28;20044;-70
2022/10/19 08:02:03;;;;;;;8.05;2.63;;;8.70;99.90;;;;;;5058860;28;20101;-69
2022/10/19 08:04:31;;;;;;;8.27;3.10;;;8.80;99.90;;;;;;5064587;28;20044;-70
2022/10/19 08:07:02;;;;;;;9.02;2.22;;;8.90;99.90;;;;;;5059923;28;20737;-70
2022/10/19 08:09:35;;;;;;;13.32;3.20;;;9.00;99.90;;;;;;5064754;28;20101;-70
2022/10/19 08:12:10;;;;;;;7.00;2.72;;;9.00;99.90;;;;;;5068070;28;20040;-69
2022/10/19 08:14:36;;;;;;;;;;;9.00;99.90;;;;;;5068405;28;20105;-69
2022/10/19 08:17:06;;;;;;;7.00;1.50;;;9.00;99.90;;;;;;5083969;28;19920;-69
2022/10/19 08:19:34;;;;;;;9.63;1.60;;;9.00;99.90;;;;;;5066918;28;20456;-69
2022/10/19 08:22:02;;;;;;;16.42;2.10;;;8.90;99.90;;;;;;5068473;28;20391;-70
2022/10/19 08:24:34;;;;;;;10.05;2.10;;;9.00;99.90;;;;;;5068191;28;20044;-70
2022/10/19 08:27:02;;;;;;;7.80;2.00;;;8.90;99.90;;;;;;5068818;28;20036;-69
2022/10/19 08:29:31;;;;;;;12.45;2.00;;;9.00;99.90;;;;;;5067243;28;20128;-69
2022/10/19 08:31:56;;;;;;;;;;;8.90;99.90;;;;;;5066173;28;20182;-69
2022/10/19 08:34:22;;;;;;;15.55;3.22;;;8.90;99.90;;;;;;5066753;28;19928;-74
2022/10/19 08:36:47;;;;;;;10.32;2.88;;;9.00;99.90;;;;;;5064680;28;20535;-70
2022/10/19 08:39:13;;;;;;;17.42;4.65;;;9.00;99.90;;;;;;5061886;28;20036;-71
2022/10/19 08:41:39;;;;;;;;;;;9.10;99.90;;;;;;5064828;28;20036;-72
2022/10/19 08:44:30;;;;;;;8.32;2.83;;;9.00;99.90;;;;;;5058845;28;20354;-71
2022/10/19 08:47:14;;;;;;;5.22;2.38;;;9.10;99.90;;;;;;5063927;28;20044;-70
2022/10/19 08:49:41;;;;;;;6.60;3.00;;;9.20;99.90;;;;;;5062817;28;20040;-72
2022/10/19 08:52:16;;;;;;;11.73;3.70;;;9.20;99.90;;;;;;5068683;28;20045;-73
2022/10/19 08:54:50;;;;;;;12.75;3.85;;;9.20;99.90;;;;;;5065845;28;20643;-70
2022/10/19 08:57:39;;;;;;;8.45;4.55;;;9.10;99.90;;;;;;5061240;28;20047;-71
2022/10/19 09:00:22;;;;;;;12.52;4.00;;;9.10;99.90;;;;;;5063823;28;20143;-72
2022/10/19 09:02:54;;;;;;;9.93;4.15;;;9.10;99.90;;;;;;5064601;28;20048;-70
2022/10/19 09:05:37;;;;;;;13.88;5.03;;;9.20;99.90;;;;;;5068886;28;20071;-70
2022/10/19 09:08:03;;;;;;;9.90;3.40;;;9.20;99.90;;;;;;5059392;28;20524;-72
2022/10/19 09:10:32;;;;;;;;;;;9.30;99.90;;;;;;5067086;28;20050;-71
2022/10/19 09:13:07;;;;;;;8.77;2.75;;;9.30;99.90;;;;;;5060626;28;19916;-71
2022/10/19 09:15:40;;;;;;;9.50;3.70;;;9.20;99.90;;;;;;5066517;28;20040;-71
2022/10/19 09:18:13;;;;;;;10.30;3.08;;;9.30;99.90;;;;;;5066737;28;20122;-71
2022/10/19 09:20:43;;;;;;;7.20;2.75;;;9.40;99.90;;;;;;5065762;28;20037;-73
2022/10/19 09:23:26;;;;;;;7.22;2.45;;;9.30;99.90;;;;;;5068194;28;20048;-71
2022/10/19 09:25:53;;;;;;;7.05;2.03;;;9.50;99.90;;;;;;5065820;28;20044;-72
2022/10/19 09:28:44;;;;;;;10.13;2.55;;;9.50;99.90;;;;;;5067482;28;20044;-70
2022/10/19 09:31:14;;;;;;;8.25;2.40;;;9.50;99.90;;;;;;5052854;28;20032;-70
2022/10/19 09:33:42;;;;;;;6.35;2.83;;;9.50;99.90;;;;;;5067986;28;20090;-70
2022/10/19 09:36:08;;;;;;;10.57;3.80;;;9.70;99.90;;;;;;5085783;28;20052;-71
2022/10/19 09:38:34;;;;;;;5.43;2.13;;;10.00;99.90;;;;;;5087233;28;20774;-70
2022/10/19 09:41:20;;;;;;;;;;;10.30;99.90;;;;;;5067288;28;20049;-71
2022/10/19 09:43:54;;;;;;;3.22;1.45;;;10.70;99.90;;;;;;5080552;28;19924;-71
2022/10/19 09:46:35;;;;;;;13.10;2.95;;;11.00;99.90;;;;;;5084907;28;20404;-73
2022/10/19 09:49:03;;;;;;;8.70;1.80;;;11.00;99.90;;;;;;5085704;28;20039;-72
2022/10/19 09:51:49;;;;;;;9.43;2.20;;;10.90;99.90;;;;;;5094254;28;20044;-71
2022/10/19 09:54:31;;;;;;;8.23;1.85;;;10.90;99.90;;;;;;5094754;28;20119;-70
2022/10/19 09:56:57;;;;;;;9.00;2.67;;;10.80;99.90;;;;;;5083514;28;20047;-72
2022/10/19 09:59:23;;;;;;;;;;;10.80;99.90;;;;;;5093369;28;20044;-70
2022/10/19 10:02:09;;;;;;;10.50;2.13;;;10.80;99.90;;;;;;5092474;28;19916;-71
2022/10/19 10:04:35;;;;;;;6.63;1.90;;;10.90;99.90;;;;;;5095048;28;20044;-67
2022/10/19 10:07:02;;;;;;;;;;;11.30;99.90;;;;;;5092924;28;20074;-66
2022/10/19 10:09:28;;;;;;;7.55;2.45;;;11.30;99.90;;;;;;5088352;28;19969;-71
2022/10/19 10:11:57;;;;;;;7.20;2.08;;;11.00;99.90;;;;;;5085733;28;20031;-69
2022/10/19 10:14:31;;;;;;;6.75;1.58;;;10.90;99.90;;;;;;5086458;28;20040;-69
2022/10/19 10:17:05;;;;;;;10.88;2.00;;;10.90;99.90;;;;;;5116070;27;20443;-71
2022/10/19 10:19:34;;;;;;;3.00;1.38;;;10.90;99.90;;;;;;5090943;28;20048;-69
2022/10/19 10:22:03;;;;;;;8.57;1.48;;;10.90;99.90;;;;;;5090464;28;20702;-70
2022/10/19 10:24:33;;;;;;;6.10;1.30;;;10.80;99.90;;;;;;5087588;28;20044;-71
2022/10/19 10:27:04;;;;;;;6.45;1.90;;;11.00;99.90;;;;;;5085518;28;20034;-71
2022/10/19 10:29:36;;;;;;;9.38;1.55;;;11.20;99.90;;;;;;5093271;28;20043;-70
2022/10/19 10:32:11;;;;;;;6.00;1.60;;;11.30;99.90;;;;;;5084847;28;20032;-71
2022/10/19 10:34:57;;;;;;;6.43;1.70;;;11.50;99.90;;;;;;5083331;28;20480;-71
2022/10/19 10:37:42;;;;;;;8.10;1.52;;;11.60;99.90;;;;;;5091232;28;20052;-70
2022/10/19 10:40:29;;;;;;;6.95;1.67;;;11.70;99.90;;;;;;5085381;28;20048;-72
2022/10/19 10:43:11;;;;;;;8.13;1.95;;;11.90;99.90;;;;;;5093623;28;20039;-71
2022/10/19 10:45:44;;;;;;;5.80;1.65;;;12.10;99.90;;;;;;5085119;28;20452;-71
2022/10/19 10:48:30;;;;;;;7.25;1.67;;;12.10;99.90;;;;;;5086077;28;20076;-72
2022/10/19 10:50:58;;;;;;;8.15;2.00;;;12.00;99.90;;;;;;5080510;28;20043;-71
2022/10/19 10:53:42;;;;;;;6.68;1.40;;;11.80;99.90;;;;;;5085421;28;20561;-73
2022/10/19 10:56:26;;;;;;;8.82;1.42;;;11.80;99.90;;;;;;5091067;28;20036;-71
2022/10/19 10:59:03;;;;;;;3.88;1.48;;;11.90;99.90;;;;;;5084380;28;20040;-70
2022/10/19 11:01:36;;;;;;;5.45;1.42;;;11.60;99.90;;;;;;5084020;28;20047;-70
2022/10/19 11:04:18;;;;;;;8.93;1.55;;;11.70;99.90;;;;;;5085180;28;20090;-72
2022/10/19 11:06:58;;;;;;;5.45;1.67;;;11.90;99.90;;;;;;5084856;28;20105;-72
2022/10/19 11:09:34;;;;;;;10.50;1.70;;;12.00;99.90;;;;;;5082543;28;20500;-72
2022/10/19 11:12:04;;;;;;;7.93;2.10;;;12.10;99.90;;;;;;5083757;28;20040;-70
2022/10/19 11:14:42;;;;;;;13.77;2.03;;;11.90;99.90;;;;;;5083502;28;20032;-71
2022/10/19 11:17:21;;;;;;;6.47;1.88;;;11.50;99.90;;;;;;5081103;28;20083;-70
2022/10/19 11:19:49;;;;;;;5.55;1.65;;;11.50;99.90;;;;;;5084213;28;20537;-73
2022/10/19 11:22:31;;;;;;;7.97;1.90;;;11.70;99.90;;;;;;5083756;28;20036;-70
2022/10/19 11:25:24;;;;;;;8.50;1.90;;;11.60;99.90;;;;;;5076673;28;20036;-71
2022/10/19 11:28:21;;;;;;;5.55;1.40;;;11.70;99.90;;;;;;5033246;28;20520;-70
2022/10/19 11:30:58;;;;;;;12.77;1.75;;;11.80;99.90;;;;;;5063137;28;20043;-74
2022/10/19 11:34:02;;;;;;;5.82;1.50;;;11.90;99.90;;;;;;5083476;28;20039;-70
2022/10/19 11:36:45;;;;;;;7.78;1.00;;;11.80;99.90;;;;;;5070221;28;20075;-70
2022/10/19 11:39:20;;;;;;;3.00;1.25;;;12.00;99.90;;;;;;5083935;28;20036;-71
2022/10/19 11:41:54;;;;;;;5.75;1.65;;;12.10;99.90;;;;;;5084457;28;20424;-70
2022/10/19 11:44:31;;;;;;;3.20;1.33;;;12.10;99.90;;;;;;5084646;28;20492;-72
2022/10/19 11:47:18;;;;;;;5.95;1.55;;;12.20;99.90;;;;;;5084138;28;20126;-73
2022/10/19 11:50:03;;;;;;;8.35;1.30;;;12.20;99.90;;;;;;5084207;28;20051;-70
2022/10/19 11:52:53;;;;;;;3.95;0.85;;;12.20;99.90;;;;;;5083727;28;20484;-70
2022/10/19 11:55:44;;;;;;;6.45;0.80;;;12.40;99.90;;;;;;5078860;28;20072;-71
2022/10/19 11:58:47;;;;;;;6.07;1.23;;;12.60;99.90;;;;;;5084352;28;20040;-71
2022/10/19 12:01:13;;;;;;;4.10;1.00;;;12.90;99.90;;;;;;5082745;28;20036;-70
2022/10/19 12:03:57;;;;;;;;;;;12.90;99.90;;;;;;5084636;28;20040;-70
2022/10/19 12:06:33;;;;;;;6.05;1.10;;;12.90;99.90;;;;;;5084355;28;19920;-71
2022/10/19 12:09:53;;;;;;;3.58;0.80;;;12.90;99.90;;;;;;5075645;28;20043;-73
2022/10/19 12:12:35;;;;;;;4.25;0.95;;;13.00;99.90;;;;;;5027490;28;20033;-71
2022/10/19 12:15:10;;;;;;;3.85;0.68;;;13.10;99.90;;;;;;5088900;28;20097;-72
2022/10/19 12:17:39;;;;;;;3.00;0.88;;;13.20;99.90;;;;;;5099465;28;20040;-70
2022/10/19 12:20:15;;;;;;;7.22;0.77;;;13.20;99.90;;;;;;5097589;28;20047;-71
2022/10/19 12:22:42;;;;;;;5.57;1.33;;;13.30;99.90;;;;;;5091675;28;20556;-70
2022/10/19 12:25:13;;;;;;;4.90;1.00;;;13.30;99.90;;;;;;5095508;28;20189;-70
2022/10/19 12:27:40;;;;;;;1.55;0.70;;;13.30;99.90;;;;;;5088543;28;20052;-71
2022/10/19 12:30:18;;;;;;;2.65;0.90;;;13.30;99.90;;;;;;5094783;28;20043;-71
2022/10/19 12:33:25;;;;;;;4.25;1.02;;;13.30;99.90;;;;;;5089290;28;20040;-70
2022/10/19 12:36:22;;;;;;;4.90;1.00;;;13.10;99.90;;;;;;5084020;28;20028;-70
2022/10/19 12:39:24;;;;;;;13.50;1.50;;;13.00;99.90;;;;;;5079262;28;20127;-71
2022/10/19 12:41:59;;;;;;;3.50;1.38;;;13.00;99.90;;;;;;5095778;28;20044;-71
2022/10/19 12:44:53;;;;;;;8.82;1.33;;;13.00;99.90;;;;;;5085227;28;20040;-71
2022/10/19 12:47:21;;;;;;;9.13;1.20;;;13.10;99.90;;;;;;5078056;28;20056;-71
2022/10/19 12:49:55;;;;;;;2.50;0.93;;;13.20;99.90;;;;;;5088471;28;20123;-72
2022/10/19 12:52:43;;;;;;;5.10;1.30;;;13.00;99.90;;;;;;5092382;28;20071;-73
2022/10/19 12:55:25;;;;;;;5.10;1.33;;;12.80;99.90;;;;;;5090669;28;20193;-71
2022/10/19 12:58:15;;;;;;;6.10;1.77;;;12.70;99.90;;;;;;5087457;28;20065;-71
2022/10/19 13:00:55;;;;;;;7.80;1.73;;;12.70;99.90;;;;;;5091988;28;20043;-71
2022/10/19 13:03:22;;;;;;;5.07;1.60;;;12.60;99.90;;;;;;5095863;28;20093;-70
2022/10/19 13:05:57;;;;;;;5.03;1.27;;;12.30;99.90;;;;;;5097878;28;20135;-71
2022/10/19 13:08:28;;;;;;;1.63;1.00;;;12.30;99.90;;;;;;5086030;28;20071;-71
2022/10/19 13:11:14;;;;;;;5.53;2.28;;;12.30;99.90;;;;;;5086176;28;20048;-71
2022/10/19 13:13:58;;;;;;;6.85;1.77;;;12.30;99.90;;;;;;5087012;28;20055;-71
2022/10/19 13:16:32;;;;;;;3.60;1.20;;;12.30;99.90;;;;;;5087597;28;20048;-69
2022/10/19 13:19:12;;;;;;;6.22;1.80;;;12.20;99.90;;;;;;5086154;28;20048;-69
2022/10/19 13:21:47;;;;;;;7.30;1.50;;;12.30;99.90;;;;;;5087065;28;20032;-69
2022/10/19 13:24:39;;;;;;;6.90;2.05;;;12.40;99.90;;;;;;5086906;28;20450;-69
2022/10/19 13:27:04;;;;;;;2.58;1.50;;;12.40;99.90;;;;;;5082685;28;20060;-69
2022/10/19 13:29:36;;;;;;;;;;;12.40;99.90;;;;;;5086513;28;20036;-69